Time;durP1;ratioP1;P1;durP2;ratioP2;P2;SDS_P1;SDS_P2;PMS_P1;PMS_P2;Temp;Humidity;BMP_temperature;BMP_pressure;BME280_temperature;BME280_humidity;BME280_pressure;Samples;Min_cycle;Max_cycle;Signal;HPM_P1;HPM_P2
2021/06/30 00:01:30;;;;;;;5.97;3.88;;;21.60;99.90;;;;;;4993488;28;20026;-79
2021/06/30 00:03:56;;;;;;;4.03;3.15;;;21.60;99.90;;;;;;4993178;28;20446;-79
2021/06/30 00:06:22;;;;;;;4.82;3.50;;;21.60;99.90;;;;;;4993624;28;20557;-75
2021/06/30 00:08:48;;;;;;;6.32;3.60;;;21.60;99.90;;;;;;4992575;28;20034;-78
2021/06/30 00:11:15;;;;;;;5.05;3.78;;;21.60;99.90;;;;;;4994041;28;20022;-80
2021/06/30 00:13:42;;;;;;;4.60;3.85;;;21.60;99.90;;;;;;4993656;28;20030;-80
2021/06/30 00:16:08;;;;;;;5.13;3.53;;;21.60;99.90;;;;;;5004035;28;20037;-79
2021/06/30 00:18:34;;;;;;;4.68;3.28;;;21.60;99.90;;;;;;4992321;28;20422;-76
2021/06/30 00:20:59;;;;;;;6.22;4.10;;;21.60;99.90;;;;;;4993066;28;20080;-82
2021/06/30 00:23:25;;;;;;;4.63;3.67;;;21.60;99.90;;;;;;4992743;28;20407;-80
2021/06/30 00:25:51;;;;;;;5.18;3.63;;;21.50;99.90;;;;;;4992431;28;20022;-81
2021/06/30 00:28:16;;;;;;;5.25;3.65;;;21.60;99.90;;;;;;4991669;28;20041;-77
2021/06/30 00:30:42;;;;;;;6.28;3.53;;;21.50;99.90;;;;;;4993034;28;20049;-80
2021/06/30 00:33:08;;;;;;;3.88;3.47;;;21.50;99.90;;;;;;4993191;28;20030;-80
2021/06/30 00:35:33;;;;;;;6.53;3.67;;;21.50;99.90;;;;;;4992881;28;20105;-79
2021/06/30 00:37:59;;;;;;;5.00;3.75;;;21.50;99.90;;;;;;4992451;28;20139;-77
2021/06/30 00:40:25;;;;;;;5.47;3.70;;;21.60;99.90;;;;;;4993459;28;20030;-74
2021/06/30 00:42:51;;;;;;;4.70;3.47;;;21.50;99.90;;;;;;4992192;28;20468;-78
2021/06/30 00:45:19;;;;;;;4.95;3.42;;;21.50;99.90;;;;;;4992130;28;20114;-75
2021/06/30 00:47:45;;;;;;;4.78;4.05;;;21.50;99.90;;;;;;4992862;28;20261;-76
2021/06/30 00:50:16;;;;;;;4.72;3.63;;;21.50;99.90;;;;;;4993269;28;20019;-77
2021/06/30 00:52:42;;;;;;;5.63;3.55;;;21.50;99.90;;;;;;4992583;28;20113;-77
2021/06/30 00:55:08;;;;;;;5.85;3.80;;;21.50;99.90;;;;;;4991628;28;20034;-76
2021/06/30 00:57:34;;;;;;;5.22;3.42;;;21.50;99.90;;;;;;4992182;28;20081;-78
2021/06/30 01:00:00;;;;;;;6.10;4.05;;;21.50;99.90;;;;;;4993145;28;20042;-77
2021/06/30 01:02:25;;;;;;;5.55;3.50;;;21.50;99.90;;;;;;4992156;28;20038;-76
2021/06/30 01:04:51;;;;;;;5.45;3.92;;;21.50;99.90;;;;;;4992162;28;20033;-79
2021/06/30 01:07:17;;;;;;;6.63;4.18;;;21.40;99.90;;;;;;4992054;28;20455;-81
2021/06/30 01:09:42;;;;;;;4.32;3.22;;;21.50;99.90;;;;;;4992711;28;20027;-79
2021/06/30 01:12:08;;;;;;;5.07;3.83;;;21.50;99.90;;;;;;4991777;28;20041;-80
2021/06/30 01:14:36;;;;;;;4.38;3.75;;;21.40;99.90;;;;;;4991747;28;20056;-78
2021/06/30 01:17:04;;;;;;;4.70;3.67;;;21.50;99.90;;;;;;4981740;28;20022;-78
2021/06/30 01:19:30;;;;;;;5.03;3.55;;;21.40;99.90;;;;;;4993116;28;20084;-80
2021/06/30 01:21:57;;;;;;;4.05;3.38;;;21.40;99.90;;;;;;4991162;28;20030;-80
2021/06/30 01:24:23;;;;;;;4.93;3.25;;;21.40;99.90;;;;;;4992425;28;20037;-79
2021/06/30 01:26:50;;;;;;;5.95;3.97;;;21.40;99.90;;;;;;4992157;28;20030;-78
2021/06/30 01:29:18;;;;;;;5.53;3.88;;;21.40;99.90;;;;;;4992111;28;20556;-78
2021/06/30 01:31:44;;;;;;;4.80;3.35;;;21.40;99.90;;;;;;4991093;28;20053;-76
2021/06/30 01:34:13;;;;;;;5.10;3.75;;;21.40;99.90;;;;;;4992096;28;20398;-78
2021/06/30 01:36:53;;;;;;;5.25;3.50;;;21.40;99.90;;;;;;4991335;28;20092;-80
2021/06/30 01:39:20;;;;;;;5.53;3.58;;;21.40;99.90;;;;;;4992560;28;20105;-75
2021/06/30 01:41:47;;;;;;;4.20;3.22;;;21.40;99.90;;;;;;4990024;28;20030;-82
2021/06/30 01:44:13;;;;;;;4.07;3.63;;;21.40;99.90;;;;;;4991768;28;20426;-77
2021/06/30 01:46:41;;;;;;;4.03;3.45;;;21.40;99.90;;;;;;4991710;28;20026;-82
2021/06/30 01:49:07;;;;;;;3.95;2.97;;;21.40;99.90;;;;;;4992123;28;20037;-77
2021/06/30 01:51:34;;;;;;;4.78;3.22;;;21.40;99.90;;;;;;4991061;28;20022;-76
2021/06/30 01:54:02;;;;;;;5.25;3.63;;;21.40;99.90;;;;;;4992159;28;20030;-78
2021/06/30 01:56:29;;;;;;;5.20;3.83;;;21.40;99.90;;;;;;4991941;28;20101;-82
2021/06/30 01:59:06;;;;;;;6.05;3.45;;;21.40;99.90;;;;;;4991230;28;20045;-78
2021/06/30 02:01:32;;;;;;;6.25;3.40;;;21.40;99.90;;;;;;4991068;28;20406;-78
2021/06/30 02:03:59;;;;;;;4.15;2.78;;;21.40;99.90;;;;;;4990590;28;20026;-79
2021/06/30 02:06:28;;;;;;;4.30;3.30;;;21.40;99.90;;;;;;4991739;28;20108;-77
2021/06/30 02:08:57;;;;;;;5.55;3.28;;;21.30;99.90;;;;;;4991719;28;20118;-76
2021/06/30 02:11:24;;;;;;;4.28;3.25;;;21.30;99.90;;;;;;4990910;28;20026;-75
2021/06/30 02:13:51;;;;;;;7.00;3.75;;;21.30;99.90;;;;;;4990927;28;20018;-77
2021/06/30 02:16:17;;;;;;;4.43;3.60;;;21.30;99.90;;;;;;5006239;28;20030;-75
2021/06/30 02:18:43;;;;;;;3.88;2.90;;;21.30;99.90;;;;;;4991545;28;20022;-78
2021/06/30 02:21:09;;;;;;;4.57;3.08;;;21.30;99.90;;;;;;4991012;28;20096;-80
2021/06/30 02:23:35;;;;;;;5.60;3.10;;;21.30;99.90;;;;;;4990479;28;20057;-78
2021/06/30 02:26:00;;;;;;;5.68;3.17;;;21.30;99.90;;;;;;4991559;28;20487;-76
2021/06/30 02:28:26;;;;;;;4.40;3.10;;;21.30;99.90;;;;;;4990806;28;20031;-75
2021/06/30 02:30:52;;;;;;;6.30;2.92;;;21.30;99.90;;;;;;4991029;28;20070;-76
2021/06/30 02:33:18;;;;;;;4.35;3.38;;;21.30;99.90;;;;;;4991423;28;20031;-76
2021/06/30 02:35:44;;;;;;;5.40;3.28;;;21.30;99.90;;;;;;4991210;28;20057;-76
2021/06/30 02:38:10;;;;;;;6.32;2.97;;;21.30;99.90;;;;;;4990923;28;20046;-77
2021/06/30 02:40:36;;;;;;;4.47;3.22;;;21.30;99.90;;;;;;4990787;28;20034;-75
2021/06/30 02:43:02;;;;;;;4.82;3.05;;;21.30;99.90;;;;;;4991155;28;20026;-74
2021/06/30 02:45:28;;;;;;;5.13;3.13;;;21.30;99.90;;;;;;4990865;28;20030;-77
2021/06/30 02:47:54;;;;;;;4.10;3.10;;;21.30;99.90;;;;;;4991356;28;20482;-78
2021/06/30 02:50:20;;;;;;;4.97;2.75;;;21.30;99.90;;;;;;4991412;28;20097;-78
2021/06/30 02:52:50;;;;;;;6.35;3.45;;;21.30;99.90;;;;;;4990463;28;20030;-75
2021/06/30 02:55:17;;;;;;;4.35;3.20;;;21.30;99.90;;;;;;4991398;28;20104;-75
2021/06/30 02:57:44;;;;;;;4.25;2.88;;;21.30;99.90;;;;;;4990830;28;20117;-77
2021/06/30 03:00:20;;;;;;;5.72;2.70;;;21.20;99.90;;;;;;4990231;28;20150;-79
2021/06/30 03:02:46;;;;;;;4.43;3.50;;;21.30;99.90;;;;;;4990135;28;20030;-74
2021/06/30 03:05:12;;;;;;;6.97;3.25;;;21.20;99.90;;;;;;4991299;28;20489;-75
2021/06/30 03:07:38;;;;;;;5.07;2.72;;;21.20;99.90;;;;;;4990555;28;20065;-79
2021/06/30 03:10:06;;;;;;;6.80;3.63;;;21.20;99.90;;;;;;4991401;28;20034;-78
2021/06/30 03:12:33;;;;;;;4.45;3.15;;;21.20;99.90;;;;;;4990639;28;20116;-78
2021/06/30 03:14:59;;;;;;;3.55;2.72;;;21.20;99.90;;;;;;5006426;28;20038;-75
2021/06/30 03:17:28;;;;;;;3.67;3.08;;;21.20;99.90;;;;;;4991213;28;20031;-74
2021/06/30 03:19:53;;;;;;;3.58;2.78;;;21.20;99.90;;;;;;5002583;28;20031;-76
2021/06/30 03:22:20;;;;;;;3.53;2.75;;;21.20;99.90;;;;;;4985633;28;20031;-75
2021/06/30 03:24:46;;;;;;;3.63;2.78;;;21.20;99.90;;;;;;4990474;28;20034;-77
2021/06/30 03:27:11;;;;;;;4.22;3.10;;;21.20;99.90;;;;;;4994526;28;20018;-77
2021/06/30 03:29:37;;;;;;;4.40;3.00;;;21.20;99.90;;;;;;5007238;28;20515;-77
2021/06/30 03:32:03;;;;;;;4.55;2.85;;;21.20;99.90;;;;;;4994169;28;20025;-76
2021/06/30 03:34:28;;;;;;;4.70;2.90;;;21.20;99.90;;;;;;5003916;28;20034;-76
2021/06/30 03:36:54;;;;;;;3.35;2.55;;;21.20;99.90;;;;;;4975086;28;20022;-75
2021/06/30 03:39:20;;;;;;;5.00;2.97;;;21.20;99.90;;;;;;4984765;28;20487;-75
2021/06/30 03:41:45;;;;;;;4.18;3.17;;;21.20;99.90;;;;;;4993843;28;20447;-78
2021/06/30 03:44:11;;;;;;;4.07;2.67;;;21.20;99.90;;;;;;4993666;28;20023;-78
2021/06/30 03:46:37;;;;;;;6.30;2.90;;;21.10;99.90;;;;;;4994425;28;20394;-77
2021/06/30 03:49:02;;;;;;;4.70;2.85;;;21.20;99.90;;;;;;4994211;28;20034;-77
2021/06/30 03:51:28;;;;;;;4.25;2.85;;;21.20;99.90;;;;;;4994446;28;20077;-79
2021/06/30 03:53:54;;;;;;;4.35;2.70;;;21.20;99.90;;;;;;4993486;28;20037;-76
2021/06/30 03:56:24;;;;;;;4.72;3.40;;;21.20;99.90;;;;;;4994312;28;20022;-80
2021/06/30 03:58:55;;;;;;;4.50;3.03;;;21.20;99.90;;;;;;4993672;28;20069;-77
2021/06/30 04:01:22;;;;;;;4.30;2.90;;;21.10;99.90;;;;;;4992382;28;20464;-78
2021/06/30 04:04:03;;;;;;;4.65;2.90;;;21.20;99.90;;;;;;4992005;28;20037;-77
2021/06/30 04:06:28;;;;;;;5.13;2.95;;;21.10;99.90;;;;;;4993055;28;20034;-76
2021/06/30 04:08:54;;;;;;;4.63;2.78;;;21.10;99.90;;;;;;4993678;28;20042;-81
2021/06/30 04:11:20;;;;;;;5.68;2.78;;;21.10;99.90;;;;;;4993796;28;20027;-80
2021/06/30 04:13:45;;;;;;;4.57;3.13;;;21.10;99.90;;;;;;4992080;28;20442;-79
2021/06/30 04:16:11;;;;;;;5.25;3.17;;;21.10;99.90;;;;;;4994065;28;20057;-79
2021/06/30 04:18:38;;;;;;;4.20;3.00;;;21.10;99.90;;;;;;4993175;28;20501;-79
2021/06/30 04:21:04;;;;;;;5.07;3.08;;;21.10;99.90;;;;;;4993417;28;20037;-79
2021/06/30 04:23:30;;;;;;;4.93;2.88;;;21.10;99.90;;;;;;4993394;28;20081;-79
2021/06/30 04:25:56;;;;;;;3.88;2.90;;;21.10;99.90;;;;;;4994073;28;20027;-78
2021/06/30 04:28:22;;;;;;;3.85;3.00;;;21.10;99.90;;;;;;4993472;28;20042;-81
2021/06/30 04:30:49;;;;;;;4.32;2.60;;;21.10;99.90;;;;;;4993489;28;20494;-80
2021/06/30 04:33:14;;;;;;;4.38;2.85;;;21.10;99.90;;;;;;4993080;28;20070;-75
2021/06/30 04:35:40;;;;;;;3.75;2.47;;;21.10;99.90;;;;;;4993209;28;20471;-81
2021/06/30 04:38:05;;;;;;;5.55;3.05;;;21.10;99.90;;;;;;4992750;28;20068;-80
2021/06/30 04:40:31;;;;;;;4.88;2.70;;;21.10;99.90;;;;;;4991847;28;20027;-79
2021/06/30 04:42:57;;;;;;;4.88;2.80;;;21.10;99.90;;;;;;4991720;28;20037;-80
2021/06/30 04:45:23;;;;;;;4.20;2.65;;;21.10;99.90;;;;;;4991687;28;20454;-80
2021/06/30 04:47:49;;;;;;;4.70;2.97;;;21.10;99.90;;;;;;4992557;28;20042;-80
2021/06/30 04:50:14;;;;;;;2.97;2.53;;;21.10;99.90;;;;;;4993321;28;20045;-79
2021/06/30 04:52:40;;;;;;;5.47;2.70;;;21.10;99.90;;;;;;4991426;28;20398;-79
2021/06/30 04:55:08;;;;;;;4.63;3.28;;;21.10;99.90;;;;;;4993029;28;20390;-80
2021/06/30 04:57:35;;;;;;;4.43;2.60;;;21.10;99.90;;;;;;5007848;28;20038;-80
2021/06/30 05:00:01;;;;;;;4.72;3.00;;;21.10;99.90;;;;;;4993727;28;20056;-75
2021/06/30 05:02:26;;;;;;;4.65;2.92;;;21.00;99.90;;;;;;4993575;28;20491;-80
2021/06/30 05:04:52;;;;;;;4.60;3.22;;;21.00;99.90;;;;;;4993070;28;20080;-81
2021/06/30 05:07:18;;;;;;;3.58;2.65;;;21.10;99.90;;;;;;4992543;28;20449;-80
2021/06/30 05:09:45;;;;;;;4.75;2.90;;;21.00;99.90;;;;;;4992710;28;20092;-81
2021/06/30 05:12:10;;;;;;;4.53;2.80;;;21.00;99.90;;;;;;4992408;28;20024;-81
2021/06/30 05:14:36;;;;;;;5.35;3.70;;;21.00;99.90;;;;;;4992745;28;20034;-79
2021/06/30 05:17:02;;;;;;;5.22;3.10;;;21.00;99.90;;;;;;4992306;28;20018;-82
2021/06/30 05:19:27;;;;;;;4.20;2.88;;;21.00;99.90;;;;;;4992985;28;20100;-84
2021/06/30 05:21:53;;;;;;;3.85;2.60;;;21.00;99.90;;;;;;4991786;28;20046;-84
2021/06/30 05:24:19;;;;;;;5.60;2.90;;;21.00;99.90;;;;;;4991827;28;20030;-81
2021/06/30 05:26:44;;;;;;;5.57;2.90;;;21.00;99.90;;;;;;4992005;28;20088;-82
2021/06/30 05:29:10;;;;;;;7.28;3.17;;;21.00;99.90;;;;;;4992141;28;20034;-79
2021/06/30 05:31:35;;;;;;;6.25;3.22;;;21.00;99.90;;;;;;4991824;28;20153;-80
2021/06/30 05:34:01;;;;;;;5.75;3.20;;;21.00;99.90;;;;;;4990775;28;20509;-78
2021/06/30 05:36:26;;;;;;;5.20;3.03;;;21.00;99.90;;;;;;4992678;28;20470;-78
2021/06/30 05:38:52;;;;;;;3.80;2.85;;;21.00;99.90;;;;;;4991591;28;20019;-80
2021/06/30 05:41:18;;;;;;;4.80;2.90;;;21.00;99.90;;;;;;4991546;28;20030;-80
2021/06/30 05:43:43;;;;;;;4.30;2.60;;;21.00;99.90;;;;;;4991727;28;20034;-79
2021/06/30 05:46:09;;;;;;;3.83;2.80;;;21.00;99.90;;;;;;4991933;28;20380;-76
2021/06/30 05:48:35;;;;;;;5.55;3.22;;;20.90;99.90;;;;;;4990151;28;20414;-79
2021/06/30 05:51:00;;;;;;;7.35;2.90;;;21.00;99.90;;;;;;4991176;28;20042;-75
2021/06/30 05:53:26;;;;;;;4.78;3.17;;;21.00;99.90;;;;;;4990943;28;20022;-76
2021/06/30 05:55:52;;;;;;;4.18;2.72;;;21.00;99.90;;;;;;4990871;28;20100;-80
2021/06/30 05:58:17;;;;;;;3.85;2.95;;;21.00;99.90;;;;;;4991777;28;20019;-76
2021/06/30 06:00:43;;;;;;;5.20;2.50;;;21.00;99.90;;;;;;4991494;28;20042;-83
2021/06/30 06:03:10;;;;;;;5.30;3.13;;;21.00;99.90;;;;;;4992562;28;20022;-83
2021/06/30 06:05:36;;;;;;;5.40;2.67;;;21.00;99.90;;;;;;4992094;28;20112;-84
2021/06/30 06:08:03;;;;;;;6.53;3.00;;;21.00;99.90;;;;;;4991677;28;20022;-87
2021/06/30 06:10:29;;;;;;;4.15;2.65;;;21.00;99.90;;;;;;4992436;28;20450;-89
2021/06/30 06:12:54;;;;;;;5.57;2.70;;;20.90;99.90;;;;;;4992379;28;20068;-88
2021/06/30 06:15:20;;;;;;;7.03;3.35;;;21.00;99.90;;;;;;4992168;28;20425;-89
2021/06/30 06:17:46;;;;;;;4.18;2.92;;;21.00;99.90;;;;;;4991233;28;20062;-86
2021/06/30 06:20:12;;;;;;;6.28;3.13;;;21.00;99.90;;;;;;4991652;28;20034;-83
2021/06/30 06:22:38;;;;;;;6.80;3.13;;;21.00;99.90;;;;;;4990025;28;20038;-85
2021/06/30 06:25:08;;;;;;;5.43;3.25;;;21.00;99.90;;;;;;4991167;28;20030;-84
2021/06/30 06:27:38;;;;;;;5.15;3.20;;;21.00;99.90;;;;;;4990804;28;20041;-84
2021/06/30 06:30:07;;;;;;;7.78;3.80;;;20.90;99.90;;;;;;4991726;28;20034;-82
2021/06/30 06:32:33;;;;;;;8.02;4.25;;;21.00;99.90;;;;;;4982597;28;20030;-80
2021/06/30 06:34:58;;;;;;;6.97;3.40;;;21.00;99.90;;;;;;4989515;28;20426;-84
2021/06/30 06:37:24;;;;;;;7.75;3.75;;;21.00;99.90;;;;;;4988852;28;20453;-86
2021/06/30 06:39:50;;;;;;;8.07;3.17;;;21.00;99.90;;;;;;4990648;28;20051;-86
2021/06/30 06:42:16;;;;;;;7.35;3.83;;;21.00;99.90;;;;;;4990438;28;20037;-82
2021/06/30 06:44:42;;;;;;;5.82;3.60;;;21.00;99.90;;;;;;4991500;28;20406;-86
2021/06/30 06:47:08;;;;;;;8.57;3.20;;;21.00;99.90;;;;;;4991673;28;20033;-80
2021/06/30 06:49:34;;;;;;;5.57;3.40;;;21.00;99.90;;;;;;4991123;28;20144;-80
2021/06/30 06:52:01;;;;;;;12.38;4.72;;;21.00;99.90;;;;;;4990334;28;20022;-86
2021/06/30 06:54:27;;;;;;;12.85;4.18;;;21.00;99.90;;;;;;4990831;28;20460;-78
2021/06/30 06:56:53;;;;;;;7.28;3.60;;;21.00;99.90;;;;;;5005615;28;20116;-78
2021/06/30 06:59:18;;;;;;;8.70;3.83;;;21.00;99.90;;;;;;4991499;28;20498;-76
2021/06/30 07:01:44;;;;;;;8.70;3.17;;;21.00;99.90;;;;;;4994944;28;20118;-82
2021/06/30 07:04:10;;;;;;;5.07;3.28;;;21.00;99.90;;;;;;4995072;28;20031;-74
2021/06/30 07:06:35;;;;;;;8.98;3.60;;;20.90;99.90;;;;;;4994939;28;20023;-84
2021/06/30 07:09:01;;;;;;;6.93;3.38;;;20.90;99.90;;;;;;4994740;28;20097;-74
2021/06/30 07:11:27;;;;;;;7.43;3.83;;;20.90;99.90;;;;;;4994305;28;20069;-78
2021/06/30 07:13:53;;;;;;;5.85;3.45;;;21.00;99.90;;;;;;4994985;28;20105;-82
2021/06/30 07:16:18;;;;;;;9.50;3.97;;;21.00;99.90;;;;;;4993913;28;20030;-82
2021/06/30 07:18:44;;;;;;;7.57;3.25;;;21.00;99.90;;;;;;4994678;28;20486;-81
2021/06/30 07:21:10;;;;;;;4.85;3.47;;;21.00;99.90;;;;;;4993417;28;20026;-74
2021/06/30 07:23:37;;;;;;;5.97;3.28;;;21.00;99.90;;;;;;4992945;28;20053;-73
2021/06/30 07:26:03;;;;;;;7.00;2.85;;;21.00;99.90;;;;;;4992515;28;20030;-74
2021/06/30 07:28:29;;;;;;;5.70;3.55;;;21.00;99.90;;;;;;4994447;28;20030;-75
2021/06/30 07:30:55;;;;;;;5.47;3.42;;;21.00;99.90;;;;;;4993706;28;20418;-74
2021/06/30 07:33:20;;;;;;;8.65;3.55;;;21.00;99.90;;;;;;4994444;28;20776;-75
2021/06/30 07:35:47;;;;;;;7.57;3.95;;;21.00;99.90;;;;;;4993856;28;20041;-73
2021/06/30 07:38:13;;;;;;;7.88;3.63;;;21.00;99.90;;;;;;4994568;28;20029;-79
2021/06/30 07:40:39;;;;;;;7.63;3.65;;;21.00;99.90;;;;;;4994126;28;20030;-77
2021/06/30 07:43:05;;;;;;;9.23;3.10;;;21.00;99.90;;;;;;4994657;28;20027;-79
2021/06/30 07:45:31;;;;;;;6.05;3.30;;;21.10;99.90;;;;;;4993137;28;20030;-74
2021/06/30 07:47:57;;;;;;;5.82;3.40;;;21.10;99.90;;;;;;4994736;28;20022;-75
2021/06/30 07:50:23;;;;;;;5.03;3.05;;;21.10;99.90;;;;;;4994651;28;20034;-77
2021/06/30 07:52:49;;;;;;;8.10;3.33;;;21.10;99.90;;;;;;4994053;28;20022;-77
2021/06/30 07:55:16;;;;;;;7.43;3.30;;;21.10;99.90;;;;;;4993633;28;20067;-77
2021/06/30 07:57:42;;;;;;;8.80;3.67;;;21.10;99.90;;;;;;4993843;28;20023;-78
2021/06/30 08:00:08;;;;;;;8.00;3.38;;;21.10;99.90;;;;;;4994189;28;20095;-74
2021/06/30 08:02:36;;;;;;;7.25;3.35;;;21.10;99.90;;;;;;4993920;28;20097;-75
2021/06/30 08:05:06;;;;;;;8.70;3.63;;;21.10;99.90;;;;;;4993912;28;20026;-76
2021/06/30 08:07:32;;;;;;;6.60;3.40;;;21.10;99.90;;;;;;4993949;28;20123;-75
2021/06/30 08:09:58;;;;;;;6.32;3.22;;;21.10;99.90;;;;;;4994314;28;20074;-76
2021/06/30 08:12:24;;;;;;;6.28;3.53;;;21.10;99.90;;;;;;4993239;28;20023;-75
2021/06/30 08:14:50;;;;;;;7.47;3.88;;;21.10;99.90;;;;;;4993446;28;20034;-75
2021/06/30 08:17:16;;;;;;;5.47;3.00;;;21.10;99.90;;;;;;4994090;28;20023;-74
2021/06/30 08:19:41;;;;;;;5.78;3.30;;;21.00;99.90;;;;;;4999411;28;20033;-76
2021/06/30 08:22:10;;;;;;;7.80;3.75;;;21.00;99.90;;;;;;5013555;28;20028;-75
2021/06/30 08:24:41;;;;;;;7.93;4.03;;;21.00;99.90;;;;;;5010698;28;20023;-74
2021/06/30 08:27:08;;;;;;;5.53;3.78;;;21.00;99.90;;;;;;5013269;28;20077;-73
2021/06/30 08:29:35;;;;;;;7.38;3.55;;;21.00;99.90;;;;;;5009406;28;20034;-78
2021/06/30 08:32:01;;;;;;;6.75;3.58;;;21.10;99.90;;;;;;4993712;28;20038;-77
2021/06/30 08:34:27;;;;;;;8.77;3.50;;;21.00;99.90;;;;;;4993605;28;20038;-75
2021/06/30 08:36:58;;;;;;;8.45;4.45;;;21.00;99.90;;;;;;4993066;28;20387;-79
2021/06/30 08:39:24;;;;;;;7.55;4.13;;;21.00;99.90;;;;;;4991602;28;20027;-78
2021/06/30 08:41:50;;;;;;;8.00;3.88;;;21.00;99.90;;;;;;4993486;28;20041;-78
2021/06/30 08:44:16;;;;;;;6.03;4.28;;;21.00;99.90;;;;;;4993059;28;20033;-78
2021/06/30 08:46:44;;;;;;;7.70;3.90;;;21.00;99.90;;;;;;4992682;28;20031;-78
2021/06/30 08:49:11;;;;;;;6.13;4.00;;;21.10;99.90;;;;;;4992920;28;20034;-74
2021/06/30 08:51:38;;;;;;;9.30;4.20;;;21.00;99.90;;;;;;4993175;28;20134;-74
2021/06/30 08:54:08;;;;;;;5.45;3.55;;;21.10;99.90;;;;;;4991967;28;20049;-74
2021/06/30 08:56:35;;;;;;;7.00;3.90;;;21.10;99.90;;;;;;4992362;28;20029;-74
2021/06/30 08:59:02;;;;;;;9.05;3.97;;;21.10;99.90;;;;;;4993103;28;20041;-74
2021/06/30 09:01:29;;;;;;;5.95;3.47;;;21.10;99.90;;;;;;4992658;28;20494;-74
2021/06/30 09:03:56;;;;;;;7.15;4.03;;;21.10;99.90;;;;;;4992710;28;20026;-74
2021/06/30 09:06:26;;;;;;;8.02;4.28;;;21.10;99.90;;;;;;4992487;28;20054;-75
2021/06/30 09:08:52;;;;;;;7.78;3.60;;;21.10;99.90;;;;;;4992722;28;20031;-73
2021/06/30 09:11:24;;;;;;;6.15;3.80;;;21.10;99.90;;;;;;4992519;28;20030;-75
2021/06/30 09:13:51;;;;;;;6.53;4.05;;;21.10;99.90;;;;;;4992828;28;20061;-74
2021/06/30 09:16:17;;;;;;;5.85;3.30;;;21.10;99.90;;;;;;4992542;28;20027;-77
2021/06/30 09:18:48;;;;;;;7.35;3.75;;;21.10;99.90;;;;;;4992095;28;20030;-78
2021/06/30 09:21:21;;;;;;;9.68;3.80;;;21.10;99.90;;;;;;4991700;28;20066;-77
2021/06/30 09:24:08;;;;;;;5.15;3.63;;;21.10;99.90;;;;;;4991292;28;20053;-78
2021/06/30 09:26:36;;;;;;;6.65;3.20;;;21.10;99.90;;;;;;4979579;28;20018;-78
2021/06/30 09:29:10;;;;;;;4.43;3.33;;;21.10;99.90;;;;;;4983540;28;20414;-75
2021/06/30 09:31:40;;;;;;;11.15;3.70;;;21.10;99.90;;;;;;4992547;28;20478;-79
2021/06/30 09:34:06;;;;;;;11.45;4.15;;;21.10;99.90;;;;;;4992670;28;20030;-79
2021/06/30 09:36:54;;;;;;;4.72;3.55;;;21.10;99.90;;;;;;4991887;28;20030;-77
2021/06/30 09:39:21;;;;;;;5.15;3.20;;;21.10;99.90;;;;;;4991846;28;20029;-77
2021/06/30 09:41:47;;;;;;;5.90;2.92;;;21.20;99.90;;;;;;4991066;28;20486;-76
2021/06/30 09:44:22;;;;;;;7.57;3.42;;;21.20;99.90;;;;;;4992315;28;20031;-76
2021/06/30 09:46:52;;;;;;;7.50;3.83;;;21.20;99.90;;;;;;4991745;28;20046;-78
2021/06/30 09:49:20;;;;;;;5.72;3.17;;;21.20;99.90;;;;;;4991897;28;20113;-79
2021/06/30 09:52:01;;;;;;;8.43;4.00;;;21.20;99.90;;;;;;4992153;28;20035;-77
2021/06/30 09:54:30;;;;;;;8.23;2.95;;;21.20;99.90;;;;;;4991168;28;20129;-77
2021/06/30 09:57:03;;;;;;;8.15;3.13;;;21.20;99.90;;;;;;4989592;28;20439;-77
2021/06/30 09:59:35;;;;;;;5.95;3.10;;;21.20;99.90;;;;;;4990742;28;20062;-77
2021/06/30 10:02:11;;;;;;;5.95;2.92;;;21.20;99.90;;;;;;4991851;28;20113;-75
2021/06/30 10:04:45;;;;;;;7.80;3.15;;;21.20;99.90;;;;;;4990295;28;20030;-75
2021/06/30 10:07:25;;;;;;;6.93;3.25;;;21.20;99.90;;;;;;4990397;28;20466;-75
2021/06/30 10:09:51;;;;;;;7.15;3.47;;;21.20;99.90;;;;;;4990602;28;20053;-75
2021/06/30 10:12:21;;;;;;;9.50;2.70;;;21.20;99.90;;;;;;4990488;28;20390;-74
2021/06/30 10:14:47;;;;;;;10.77;3.50;;;21.20;99.90;;;;;;5005207;28;20128;-74
2021/06/30 10:17:15;;;;;;;6.50;2.83;;;21.20;99.90;;;;;;4990031;28;20455;-75
2021/06/30 10:19:43;;;;;;;4.50;2.88;;;21.20;99.90;;;;;;4989581;28;20034;-73
2021/06/30 10:22:10;;;;;;;9.57;3.47;;;21.20;99.90;;;;;;4989839;28;20521;-74
2021/06/30 10:24:37;;;;;;;7.03;2.83;;;21.20;99.90;;;;;;4990279;28;20076;-73
2021/06/30 10:27:04;;;;;;;4.57;2.50;;;21.20;99.90;;;;;;4990001;28;20031;-74
2021/06/30 10:29:32;;;;;;;4.90;2.72;;;21.20;99.90;;;;;;4990828;28;20483;-74
2021/06/30 10:32:05;;;;;;;6.57;2.65;;;21.20;99.90;;;;;;4992223;28;20391;-75
2021/06/30 10:34:40;;;;;;;8.48;2.47;;;21.20;99.90;;;;;;4993016;28;20030;-76
2021/06/30 10:37:24;;;;;;;3.67;2.17;;;21.20;99.90;;;;;;4997393;28;20023;-74
2021/06/30 10:40:03;;;;;;;5.40;3.22;;;21.20;99.90;;;;;;4994011;28;20277;-76
2021/06/30 10:42:35;;;;;;;6.75;2.40;;;21.20;99.90;;;;;;4993377;28;20101;-78
2021/06/30 10:45:13;;;;;;;4.75;2.47;;;21.20;99.90;;;;;;4995317;28;20174;-74
2021/06/30 10:47:52;;;;;;;6.75;2.42;;;21.20;99.90;;;;;;4995308;28;20030;-77
2021/06/30 10:50:22;;;;;;;3.88;2.17;;;21.20;99.90;;;;;;4995182;28;20038;-76
2021/06/30 10:53:04;;;;;;;3.83;2.22;;;21.20;99.90;;;;;;4994614;28;20390;-75
2021/06/30 10:55:40;;;;;;;3.67;2.22;;;21.20;99.90;;;;;;4996016;28;20080;-74
2021/06/30 10:58:14;;;;;;;6.60;2.45;;;21.20;99.90;;;;;;4995530;28;20027;-77
2021/06/30 11:01:05;;;;;;;4.78;2.25;;;21.20;99.90;;;;;;4995349;28;20054;-78
2021/06/30 11:03:46;;;;;;;5.40;2.30;;;21.20;99.90;;;;;;4996516;28;20026;-77
2021/06/30 11:06:23;;;;;;;5.10;2.20;;;21.20;99.90;;;;;;4996438;28;20023;-77
2021/06/30 11:08:57;;;;;;;2.53;1.35;;;21.20;99.90;;;;;;4995720;28;20049;-77
2021/06/30 11:11:26;;;;;;;7.15;2.30;;;21.20;99.90;;;;;;5010498;28;20614;-79
2021/06/30 11:13:52;;;;;;;3.25;2.10;;;21.20;99.90;;;;;;4994808;28;20031;-79
2021/06/30 11:16:43;;;;;;;3.25;1.90;;;21.20;99.90;;;;;;4996651;28;20023;-79
2021/06/30 11:19:15;;;;;;;4.75;1.98;;;21.20;99.90;;;;;;4996471;28;20113;-79
2021/06/30 11:21:44;;;;;;;3.67;1.50;;;21.30;99.90;;;;;;4994322;28;20034;-75
2021/06/30 11:24:35;;;;;;;4.25;1.50;;;21.20;99.90;;;;;;4994723;28;20386;-76
2021/06/30 11:27:07;;;;;;;2.30;1.35;;;21.30;99.90;;;;;;4995724;28;20101;-75
2021/06/30 11:29:42;;;;;;;2.90;1.70;;;21.30;99.90;;;;;;4995728;28;20038;-75
2021/06/30 11:32:09;;;;;;;3.25;1.70;;;21.30;99.90;;;;;;4996321;28;20039;-74
2021/06/30 11:34:39;;;;;;;5.18;1.77;;;21.30;99.90;;;;;;4994651;28;20550;-75
2021/06/30 11:37:06;;;;;;;5.85;1.63;;;21.40;99.90;;;;;;4996027;28;20026;-77
2021/06/30 11:39:32;;;;;;;2.08;1.33;;;21.40;99.90;;;;;;5021138;28;20034;-78
2021/06/30 11:41:58;;;;;;;3.35;1.73;;;21.30;99.90;;;;;;4996119;28;20053;-75
2021/06/30 11:44:35;;;;;;;2.63;1.50;;;21.30;99.90;;;;;;4995931;28;20030;-79
2021/06/30 11:47:06;;;;;;;3.30;1.52;;;21.30;99.90;;;;;;4992990;28;20034;-74
2021/06/30 11:49:32;;;;;;;3.03;1.40;;;21.30;99.90;;;;;;4991903;28;20038;-81
2021/06/30 11:52:02;;;;;;;3.70;1.50;;;21.30;99.90;;;;;;4994076;28;20022;-82
2021/06/30 11:54:29;;;;;;;3.30;1.23;;;21.30;99.90;;;;;;4993500;28;20174;-74
2021/06/30 11:56:55;;;;;;;4.65;1.70;;;21.30;99.90;;;;;;4993273;28;20510;-75
2021/06/30 11:59:23;;;;;;;3.70;1.75;;;21.30;99.90;;;;;;4992948;28;20022;-74
2021/06/30 12:01:53;;;;;;;3.67;1.27;;;21.30;99.90;;;;;;4993614;28;20109;-76
2021/06/30 12:04:25;;;;;;;1.77;1.05;;;21.30;99.90;;;;;;4994330;28;20023;-77
2021/06/30 12:07:03;;;;;;;5.45;1.40;;;21.30;99.90;;;;;;5025700;28;20524;-77
2021/06/30 12:09:34;;;;;;;2.63;1.20;;;21.30;99.90;;;;;;4994054;28;20416;-80
2021/06/30 12:12:05;;;;;;;3.15;1.60;;;21.30;99.90;;;;;;4994111;28;20120;-78
2021/06/30 12:14:36;;;;;;;3.45;1.77;;;21.30;99.90;;;;;;4992239;28;20145;-74
2021/06/30 12:17:03;;;;;;;4.10;1.33;;;21.30;99.90;;;;;;4993530;28;20026;-74
2021/06/30 12:19:47;;;;;;;2.80;1.45;;;21.30;99.90;;;;;;4993745;28;20026;-75
2021/06/30 12:22:31;;;;;;;6.18;1.75;;;21.30;99.90;;;;;;4994059;28;20101;-75
2021/06/30 12:25:03;;;;;;;3.72;1.33;;;21.30;99.90;;;;;;4994342;28;20049;-74
2021/06/30 12:27:35;;;;;;;2.50;1.50;;;21.40;99.80;;;;;;4994198;28;20018;-75
2021/06/30 12:30:05;;;;;;;2.88;1.45;;;21.40;99.80;;;;;;4993117;28;20033;-75
2021/06/30 12:32:31;;;;;;;3.28;1.38;;;21.40;99.70;;;;;;4993438;28;20160;-75
2021/06/30 12:35:00;;;;;;;3.45;1.48;;;21.40;99.70;;;;;;4992848;28;20043;-75
2021/06/30 12:37:26;;;;;;;2.03;1.02;;;21.50;99.60;;;;;;4993825;28;20030;-74
2021/06/30 12:39:55;;;;;;;2.85;1.40;;;21.50;99.60;;;;;;4992970;28;20108;-75
2021/06/30 12:42:21;;;;;;;3.08;1.40;;;21.50;99.50;;;;;;4993430;28;20368;-76
2021/06/30 12:44:57;;;;;;;4.80;1.50;;;21.50;99.60;;;;;;4993114;28;20089;-75
2021/06/30 12:47:23;;;;;;;3.72;1.65;;;21.50;99.50;;;;;;4993599;28;20022;-75
2021/06/30 12:49:59;;;;;;;2.63;1.35;;;21.50;99.40;;;;;;4992901;28;20039;-75